sensor_id;sensor_type;location;lat;lon;timestamp;temperature;humidity
36790;DHT22;22740;52.182;8.780;2023-02-19T00:01:08;8.60;99.90
36790;DHT22;22740;52.182;8.780;2023-02-19T00:07:11;8.60;99.90
36790;DHT22;22740;52.182;8.780;2023-02-19T00:13:13;8.60;99.90
36790;DHT22;22740;52.182;8.780;2023-02-19T00:19:17;8.60;99.90
36790;DHT22;22740;52.182;8.780;2023-02-19T00:25:20;8.60;99.90
36790;DHT22;22740;52.182;8.780;2023-02-19T00:31:26;8.60;99.90
36790;DHT22;22740;52.182;8.780;2023-02-19T00:37:28;8.70;99.90
36790;DHT22;22740;52.182;8.780;2023-02-19T00:43:30;8.70;99.90
36790;DHT22;22740;52.182;8.780;2023-02-19T00:49:31;8.70;99.90
36790;DHT22;22740;52.182;8.780;2023-02-19T00:55:33;8.80;99.90
36790;DHT22;22740;52.182;8.780;2023-02-19T01:01:36;8.80;99.90
36790;DHT22;22740;52.182;8.780;2023-02-19T01:07:38;8.90;99.90
36790;DHT22;22740;52.182;8.780;2023-02-19T01:13:40;9.00;99.90
36790;DHT22;22740;52.182;8.780;2023-02-19T01:19:42;9.00;99.90
36790;DHT22;22740;52.182;8.780;2023-02-19T01:25:44;8.90;99.90
36790;DHT22;22740;52.182;8.780;2023-02-19T01:31:46;8.90;99.90
36790;DHT22;22740;52.182;8.780;2023-02-19T01:37:48;8.90;99.90
36790;DHT22;22740;52.182;8.780;2023-02-19T01:50:00;8.90;99.90
36790;DHT22;22740;52.182;8.780;2023-02-19T01:56:03;8.90;99.90
36790;DHT22;22740;52.182;8.780;2023-02-19T02:02:06;8.90;99.90
36790;DHT22;22740;52.182;8.780;2023-02-19T02:08:08;8.90;99.90
36790;DHT22;22740;52.182;8.780;2023-02-19T02:14:31;8.90;99.90
36790;DHT22;22740;52.182;8.780;2023-02-19T02:20:45;9.00;99.90
36790;DHT22;22740;52.182;8.780;2023-02-19T02:39:41;9.00;99.90
36790;DHT22;22740;52.182;8.780;2023-02-19T02:45:45;9.10;99.90
36790;DHT22;22740;52.182;8.780;2023-02-19T02:51:49;9.00;99.90
36790;DHT22;22740;52.182;8.780;2023-02-19T02:57:53;9.10;99.90
36790;DHT22;22740;52.182;8.780;2023-02-19T03:04:05;9.10;99.90
36790;DHT22;22740;52.182;8.780;2023-02-19T03:10:12;9.20;99.90
36790;DHT22;22740;52.182;8.780;2023-02-19T03:16:28;9.20;99.90
36790;DHT22;22740;52.182;8.780;2023-02-19T03:22:52;9.20;99.90
36790;DHT22;22740;52.182;8.780;2023-02-19T03:28:55;9.20;99.90
36790;DHT22;22740;52.182;8.780;2023-02-19T03:35:22;9.10;99.90
36790;DHT22;22740;52.182;8.780;2023-02-19T03:41:29;9.20;99.90
36790;DHT22;22740;52.182;8.780;2023-02-19T03:54:10;9.20;99.90
36790;DHT22;22740;52.182;8.780;2023-02-19T04:00:20;9.10;99.90
36790;DHT22;22740;52.182;8.780;2023-02-19T04:06:28;9.20;99.90
36790;DHT22;22740;52.182;8.780;2023-02-19T04:12:32;9.00;99.90
36790;DHT22;22740;52.182;8.780;2023-02-19T04:18:39;9.00;99.90
36790;DHT22;22740;52.182;8.780;2023-02-19T04:24:50;8.90;99.90
36790;DHT22;22740;52.182;8.780;2023-02-19T04:30:52;8.90;99.90
36790;DHT22;22740;52.182;8.780;2023-02-19T04:36:54;9.00;99.90
36790;DHT22;22740;52.182;8.780;2023-02-19T04:42:56;9.00;99.90
36790;DHT22;22740;52.182;8.780;2023-02-19T04:48:58;9.00;99.90
36790;DHT22;22740;52.182;8.780;2023-02-19T04:55:00;9.00;99.90
36790;DHT22;22740;52.182;8.780;2023-02-19T05:01:02;9.00;99.90
36790;DHT22;22740;52.182;8.780;2023-02-19T05:07:04;9.00;99.90
36790;DHT22;22740;52.182;8.780;2023-02-19T05:13:06;9.00;99.90
36790;DHT22;22740;52.182;8.780;2023-02-19T05:19:11;9.00;99.90
36790;DHT22;22740;52.182;8.780;2023-02-19T05:25:15;9.00;99.90
36790;DHT22;22740;52.182;8.780;2023-02-19T05:31:18;9.00;99.90
36790;DHT22;22740;52.182;8.780;2023-02-19T05:37:20;8.90;99.90
36790;DHT22;22740;52.182;8.780;2023-02-19T05:43:24;7.90;99.90
36790;DHT22;22740;52.182;8.780;2023-02-19T05:49:26;7.20;99.90
36790;DHT22;22740;52.182;8.780;2023-02-19T05:55:29;6.80;99.90
36790;DHT22;22740;52.182;8.780;2023-02-19T06:01:31;6.70;99.90
36790;DHT22;22740;52.182;8.780;2023-02-19T06:07:33;6.60;99.90
36790;DHT22;22740;52.182;8.780;2023-02-19T06:13:36;6.50;99.90
36790;DHT22;22740;52.182;8.780;2023-02-19T06:19:38;6.40;99.90
36790;DHT22;22740;52.182;8.780;2023-02-19T06:25:40;6.40;99.90
36790;DHT22;22740;52.182;8.780;2023-02-19T06:31:42;6.30;99.90
36790;DHT22;22740;52.182;8.780;2023-02-19T06:37:46;6.30;99.90
36790;DHT22;22740;52.182;8.780;2023-02-19T06:43:48;6.10;99.90
36790;DHT22;22740;52.182;8.780;2023-02-19T06:49:50;6.00;99.90
36790;DHT22;22740;52.182;8.780;2023-02-19T06:56:02;6.10;99.90
36790;DHT22;22740;52.182;8.780;2023-02-19T07:02:06;6.00;99.90
36790;DHT22;22740;52.182;8.780;2023-02-19T07:08:10;6.00;99.90
36790;DHT22;22740;52.182;8.780;2023-02-19T07:14:14;6.00;99.90
36790;DHT22;22740;52.182;8.780;2023-02-19T07:20:16;5.80;99.90
36790;DHT22;22740;52.182;8.780;2023-02-19T07:26:19;5.60;99.90
36790;DHT22;22740;52.182;8.780;2023-02-19T07:32:21;5.60;99.90
36790;DHT22;22740;52.182;8.780;2023-02-19T07:38:24;5.50;99.90
36790;DHT22;22740;52.182;8.780;2023-02-19T07:44:26;5.50;99.90
36790;DHT22;22740;52.182;8.780;2023-02-19T07:50:28;5.40;99.90
36790;DHT22;22740;52.182;8.780;2023-02-19T07:56:30;5.40;99.90
36790;DHT22;22740;52.182;8.780;2023-02-19T08:02:31;5.30;99.90
36790;DHT22;22740;52.182;8.780;2023-02-19T08:08:52;5.50;99.90
36790;DHT22;22740;52.182;8.780;2023-02-19T08:14:56;5.40;99.90
36790;DHT22;22740;52.182;8.780;2023-02-19T08:20:59;5.40;99.90
36790;DHT22;22740;52.182;8.780;2023-02-19T08:27:01;5.50;99.90
36790;DHT22;22740;52.182;8.780;2023-02-19T08:33:05;5.50;99.90
36790;DHT22;22740;52.182;8.780;2023-02-19T08:39:07;5.60;99.90
36790;DHT22;22740;52.182;8.780;2023-02-19T08:45:09;5.50;99.90
36790;DHT22;22740;52.182;8.780;2023-02-19T08:51:11;5.60;99.90
36790;DHT22;22740;52.182;8.780;2023-02-19T08:57:13;5.70;99.90
36790;DHT22;22740;52.182;8.780;2023-02-19T09:03:15;5.80;99.90
36790;DHT22;22740;52.182;8.780;2023-02-19T09:09:17;5.70;99.90
36790;DHT22;22740;52.182;8.780;2023-02-19T09:15:19;6.10;99.90
36790;DHT22;22740;52.182;8.780;2023-02-19T09:21:21;6.10;99.90
36790;DHT22;22740;52.182;8.780;2023-02-19T09:27:23;6.10;99.90
36790;DHT22;22740;52.182;8.780;2023-02-19T09:33:25;6.10;99.90
36790;DHT22;22740;52.182;8.780;2023-02-19T09:39:27;5.90;99.90
36790;DHT22;22740;52.182;8.780;2023-02-19T09:45:29;6.40;99.90
36790;DHT22;22740;52.182;8.780;2023-02-19T09:51:33;6.20;99.90
36790;DHT22;22740;52.182;8.780;2023-02-19T09:57:37;6.30;99.90
36790;DHT22;22740;52.182;8.780;2023-02-19T10:03:43;6.70;99.90
36790;DHT22;22740;52.182;8.780;2023-02-19T10:09:50;6.50;99.90
36790;DHT22;22740;52.182;8.780;2023-02-19T10:15:57;6.80;99.90
36790;DHT22;22740;52.182;8.780;2023-02-19T10:22:01;6.50;99.90
36790;DHT22;22740;52.182;8.780;2023-02-19T10:28:09;6.70;99.90
36790;DHT22;22740;52.182;8.780;2023-02-19T10:34:21;6.70;99.90
36790;DHT22;22740;52.182;8.780;2023-02-19T10:40:25;7.20;99.90
36790;DHT22;22740;52.182;8.780;2023-02-19T10:46:34;7.50;99.90
36790;DHT22;22740;52.182;8.780;2023-02-19T10:52:38;7.70;99.90
36790;DHT22;22740;52.182;8.780;2023-02-19T10:58:41;7.60;99.90
36790;DHT22;22740;52.182;8.780;2023-02-19T11:11:25;7.10;99.90
36790;DHT22;22740;52.182;8.780;2023-02-19T11:17:29;7.50;99.90
36790;DHT22;22740;52.182;8.780;2023-02-19T11:29:36;7.10;99.90
36790;DHT22;22740;52.182;8.780;2023-02-19T11:35:38;7.30;99.90
36790;DHT22;22740;52.182;8.780;2023-02-19T11:54:32;8.10;99.90
36790;DHT22;22740;52.182;8.780;2023-02-19T12:00:47;8.00;99.90
36790;DHT22;22740;52.182;8.780;2023-02-19T12:07:19;7.60;99.90
36790;DHT22;22740;52.182;8.780;2023-02-19T12:13:34;7.50;99.90
36790;DHT22;22740;52.182;8.780;2023-02-19T12:46:06;7.80;99.90
36790;DHT22;22740;52.182;8.780;2023-02-19T12:52:15;7.50;99.90
36790;DHT22;22740;52.182;8.780;2023-02-19T12:58:42;7.80;99.90
36790;DHT22;22740;52.182;8.780;2023-02-19T13:17:50;7.90;99.90
36790;DHT22;22740;52.182;8.780;2023-02-19T13:23:56;8.20;99.90
36790;DHT22;22740;52.182;8.780;2023-02-19T13:30:28;8.50;99.90
36790;DHT22;22740;52.182;8.780;2023-02-19T13:36:34;8.50;99.90
36790;DHT22;22740;52.182;8.780;2023-02-19T13:42:36;8.20;99.90
36790;DHT22;22740;52.182;8.780;2023-02-19T13:48:40;7.90;99.90
36790;DHT22;22740;52.182;8.780;2023-02-19T13:54:43;8.10;99.90
36790;DHT22;22740;52.182;8.780;2023-02-19T14:00:47;7.90;99.90
36790;DHT22;22740;52.182;8.780;2023-02-19T14:13:07;7.70;99.90
36790;DHT22;22740;52.182;8.780;2023-02-19T14:26:17;7.90;99.90
36790;DHT22;22740;52.182;8.780;2023-02-19T14:32:17;7.80;99.90
36790;DHT22;22740;52.182;8.780;2023-02-19T14:38:35;7.60;99.90
36790;DHT22;22740;52.182;8.780;2023-02-19T14:50:49;7.50;99.90
36790;DHT22;22740;52.182;8.780;2023-02-19T14:56:53;7.30;99.90
36790;DHT22;22740;52.182;8.780;2023-02-19T15:02:56;7.30;99.90
36790;DHT22;22740;52.182;8.780;2023-02-19T15:09:05;7.40;99.90
36790;DHT22;22740;52.182;8.780;2023-02-19T15:15:14;7.40;99.90
36790;DHT22;22740;52.182;8.780;2023-02-19T15:21:23;7.40;99.90
36790;DHT22;22740;52.182;8.780;2023-02-19T15:27:25;7.40;99.90
36790;DHT22;22740;52.182;8.780;2023-02-19T15:33:27;7.30;99.90
36790;DHT22;22740;52.182;8.780;2023-02-19T15:39:49;7.00;99.90
36790;DHT22;22740;52.182;8.780;2023-02-19T15:45:56;7.10;99.90
36790;DHT22;22740;52.182;8.780;2023-02-19T15:52:07;7.00;99.90
36790;DHT22;22740;52.182;8.780;2023-02-19T16:04:19;7.00;99.90
36790;DHT22;22740;52.182;8.780;2023-02-19T16:10:24;6.90;99.90
36790;DHT22;22740;52.182;8.780;2023-02-19T16:16:34;6.70;99.90
36790;DHT22;22740;52.182;8.780;2023-02-19T16:22:40;6.60;99.90
36790;DHT22;22740;52.182;8.780;2023-02-19T16:28:43;6.70;99.90
36790;DHT22;22740;52.182;8.780;2023-02-19T16:34:47;6.60;99.90
36790;DHT22;22740;52.182;8.780;2023-02-19T16:46:54;6.50;99.90
36790;DHT22;22740;52.182;8.780;2023-02-19T16:52:59;6.30;99.90
36790;DHT22;22740;52.182;8.780;2023-02-19T16:59:02;6.30;99.90
36790;DHT22;22740;52.182;8.780;2023-02-19T17:05:04;6.30;99.90
36790;DHT22;22740;52.182;8.780;2023-02-19T17:11:10;6.30;99.90
36790;DHT22;22740;52.182;8.780;2023-02-19T17:17:13;6.30;99.90
36790;DHT22;22740;52.182;8.780;2023-02-19T17:23:15;6.20;99.90
36790;DHT22;22740;52.182;8.780;2023-02-19T17:29:17;6.20;99.90
36790;DHT22;22740;52.182;8.780;2023-02-19T17:35:20;6.20;99.90
36790;DHT22;22740;52.182;8.780;2023-02-19T17:41:22;6.20;99.90
36790;DHT22;22740;52.182;8.780;2023-02-19T17:47:24;6.10;99.90
36790;DHT22;22740;52.182;8.780;2023-02-19T17:53:26;6.10;99.90
36790;DHT22;22740;52.182;8.780;2023-02-19T17:59:27;6.10;99.90
36790;DHT22;22740;52.182;8.780;2023-02-19T18:05:29;6.10;99.90
36790;DHT22;22740;52.182;8.780;2023-02-19T18:11:31;6.10;99.90
36790;DHT22;22740;52.182;8.780;2023-02-19T18:17:33;6.00;99.90
36790;DHT22;22740;52.182;8.780;2023-02-19T18:23:36;6.00;99.90
36790;DHT22;22740;52.182;8.780;2023-02-19T18:29:38;6.00;99.90
36790;DHT22;22740;52.182;8.780;2023-02-19T18:35:40;6.00;99.90
36790;DHT22;22740;52.182;8.780;2023-02-19T18:41:46;6.10;99.90
36790;DHT22;22740;52.182;8.780;2023-02-19T18:47:49;6.20;99.90
36790;DHT22;22740;52.182;8.780;2023-02-19T18:53:51;6.20;99.90
36790;DHT22;22740;52.182;8.780;2023-02-19T18:59:53;6.20;99.90
36790;DHT22;22740;52.182;8.780;2023-02-19T19:05:55;6.20;99.90
36790;DHT22;22740;52.182;8.780;2023-02-19T19:11:57;6.20;99.90
36790;DHT22;22740;52.182;8.780;2023-02-19T19:17:58;6.20;99.90
36790;DHT22;22740;52.182;8.780;2023-02-19T19:24:00;6.20;99.90
36790;DHT22;22740;52.182;8.780;2023-02-19T19:30:03;6.20;99.90
36790;DHT22;22740;52.182;8.780;2023-02-19T19:36:06;6.10;99.90
36790;DHT22;22740;52.182;8.780;2023-02-19T19:42:07;6.10;99.90
36790;DHT22;22740;52.182;8.780;2023-02-19T19:48:10;6.10;99.90
36790;DHT22;22740;52.182;8.780;2023-02-19T19:54:12;6.10;99.90
36790;DHT22;22740;52.182;8.780;2023-02-19T20:00:16;6.10;99.90
36790;DHT22;22740;52.182;8.780;2023-02-19T20:06:29;6.10;99.90
36790;DHT22;22740;52.182;8.780;2023-02-19T20:12:31;6.10;99.90
36790;DHT22;22740;52.182;8.780;2023-02-19T20:18:33;6.20;99.90
36790;DHT22;22740;52.182;8.780;2023-02-19T20:24:35;6.10;99.90
36790;DHT22;22740;52.182;8.780;2023-02-19T20:30:37;6.10;99.90
36790;DHT22;22740;52.182;8.780;2023-02-19T20:36:43;6.10;99.90
36790;DHT22;22740;52.182;8.780;2023-02-19T20:42:46;6.10;99.90
36790;DHT22;22740;52.182;8.780;2023-02-19T20:48:47;6.20;99.90
36790;DHT22;22740;52.182;8.780;2023-02-19T20:54:54;6.10;99.90
36790;DHT22;22740;52.182;8.780;2023-02-19T21:00:56;6.10;99.90
36790;DHT22;22740;52.182;8.780;2023-02-19T21:06:58;6.10;99.90
36790;DHT22;22740;52.182;8.780;2023-02-19T21:13:00;6.10;99.90
36790;DHT22;22740;52.182;8.780;2023-02-19T21:19:02;6.00;99.90
36790;DHT22;22740;52.182;8.780;2023-02-19T21:25:04;6.00;99.90
36790;DHT22;22740;52.182;8.780;2023-02-19T21:31:06;6.00;99.90
36790;DHT22;22740;52.182;8.780;2023-02-19T21:37:08;6.10;99.90
36790;DHT22;22740;52.182;8.780;2023-02-19T21:43:10;6.20;99.90
36790;DHT22;22740;52.182;8.780;2023-02-19T21:49:13;6.20;99.90
36790;DHT22;22740;52.182;8.780;2023-02-19T21:55:15;6.20;99.90
36790;DHT22;22740;52.182;8.780;2023-02-19T22:01:28;6.20;99.90
36790;DHT22;22740;52.182;8.780;2023-02-19T22:07:30;6.30;99.90
36790;DHT22;22740;52.182;8.780;2023-02-19T22:13:32;6.40;99.90
36790;DHT22;22740;52.182;8.780;2023-02-19T22:19:35;6.40;99.90
36790;DHT22;22740;52.182;8.780;2023-02-19T22:25:37;6.30;99.90
36790;DHT22;22740;52.182;8.780;2023-02-19T22:31:39;6.30;99.90
36790;DHT22;22740;52.182;8.780;2023-02-19T22:37:42;6.20;99.90
36790;DHT22;22740;52.182;8.780;2023-02-19T22:43:46;6.20;99.90
36790;DHT22;22740;52.182;8.780;2023-02-19T22:49:48;6.20;99.90
36790;DHT22;22740;52.182;8.780;2023-02-19T22:55:51;6.10;99.90
36790;DHT22;22740;52.182;8.780;2023-02-19T23:01:58;6.10;99.90
36790;DHT22;22740;52.182;8.780;2023-02-19T23:08:02;6.00;99.90
36790;DHT22;22740;52.182;8.780;2023-02-19T23:14:05;6.10;99.90
36790;DHT22;22740;52.182;8.780;2023-02-19T23:20:08;6.20;99.90
36790;DHT22;22740;52.182;8.780;2023-02-19T23:26:10;6.10;99.90
36790;DHT22;22740;52.182;8.780;2023-02-19T23:32:13;6.20;99.90
36790;DHT22;22740;52.182;8.780;2023-02-19T23:38:15;6.20;99.90
36790;DHT22;22740;52.182;8.780;2023-02-19T23:44:17;6.30;99.90
36790;DHT22;22740;52.182;8.780;2023-02-19T23:50:19;6.30;99.90
36790;DHT22;22740;52.182;8.780;2023-02-19T23:56:25;6.30;99.90
